Aérodrome :
LOGIN :

S'inscrire | Disclaimer

   EN    FR    IT 

 










Légende :    VFR   VFR Marginal   IFR   IFR Intensif   IFR Très Intensif
Visi : 
Plafond : 
>= 8 km
>= 3000ft
5 à 8 km
1000 à 3000 ft
1500m à 5 km
500 à 1000 ft
800 à 1500m
200 à 500 ft
< 800m
< 200 ft
Symboles :   Orages  Brouillard  Fortes neiges  Fortes précipitations  Vent > 20 kt
SIGMETs :   Divers  Orages  Givrage  Turbulence  Onde Orograph.  Cendres Volcan.







- Altitude de l'aérodrome : 995 ft
- Code IATA : KTW


EPKT - Katowice

DERNIER METAR :
  • 101700Z 28007KT 0650 R27/1500D +SHSN BKN002 BKN010CB 00/M01 Q1009

METARs EXPIRÉS :
  • 101630Z 33007KT 280V350 1400 R27/1900 SHSN SCT002 BKN005CB 00/M00 Q1009
  • 101600Z 27009KT 1500 R27/1900N SHSN BKN002 BKN006CB 00/M01 Q1009 RESHSN
  • 101530Z 28014KT 9999 -SHSN FEW006 BKN010CB 01/M00 Q1008
  • 101500Z 26012KT 9999 FEW009 SCT012 BKN035 01/M00 Q1008
  • 101430Z 28008KT 9999 FEW014 01/M00 Q1008

TAF AMD TAF EPKT
Valide du 10 à 16h jusqu'au 11 à 12h UTC


101640Z 1016/1112 27010KT 9999 BKN020
TEMPO 1016/1018 0800 SHSN BKN003 BKN006CB
TEMPO 1018/1108 2000 SHSN BKN004 BKN010CB
BECMG 1108/1112 BKN013
TEMPO 1108/1112 2000 SN BR BKN004 OVC010
PROB40
TEMPO 1110/1112 1200 SN BKN002 OVC005
Pas de NOTAMs connus pour ce terrain.



MET'MAP, la Météo Aéronautique d'un coup d'oeil ! - Copyright ORBIFLY Décembre 2007 - Disclaimer

ORBIFLY MET'MAP TEAM :

Programmation & Développement : Alexandra Zaïnal
Conception & Développement : Baudouin d'Aumeries
Co-Programmation & Développement : Marc-Olivier Méhu
Soutien technique & logistique : Manuel Goepfert

Contact : metmap@orbifly.com




SOURCES & CREDITS :

   NOAA